sensor_id;sensor_type;location;lat;lon;timestamp;P1;durP1;ratioP1;P2;durP2;ratioP2
34924;SDS011;21130;51.728;8.748;2022-10-16T00:01:35;4.18;;;3.75;;
34924;SDS011;21130;51.728;8.748;2022-10-16T00:04:02;7.55;;;4.32;;
34924;SDS011;21130;51.728;8.748;2022-10-16T00:06:29;5.18;;;4.15;;
34924;SDS011;21130;51.728;8.748;2022-10-16T00:08:56;6.25;;;3.88;;
34924;SDS011;21130;51.728;8.748;2022-10-16T00:26:54;7.45;;;5.00;;
34924;SDS011;21130;51.728;8.748;2022-10-16T00:29:21;5.32;;;4.78;;
34924;SDS011;21130;51.728;8.748;2022-10-16T00:31:48;4.60;;;4.15;;
34924;SDS011;21130;51.728;8.748;2022-10-16T00:34:14;6.35;;;3.97;;
34924;SDS011;21130;51.728;8.748;2022-10-16T00:36:41;7.07;;;4.93;;
34924;SDS011;21130;51.728;8.748;2022-10-16T00:39:07;4.93;;;4.28;;
34924;SDS011;21130;51.728;8.748;2022-10-16T00:41:34;6.18;;;4.60;;
34924;SDS011;21130;51.728;8.748;2022-10-16T00:44:02;8.07;;;4.35;;
34924;SDS011;21130;51.728;8.748;2022-10-16T00:46:53;5.07;;;4.32;;
34924;SDS011;21130;51.728;8.748;2022-10-16T00:49:20;5.13;;;3.97;;
34924;SDS011;21130;51.728;8.748;2022-10-16T00:51:47;5.28;;;4.13;;
34924;SDS011;21130;51.728;8.748;2022-10-16T00:54:18;5.50;;;4.40;;
34924;SDS011;21130;51.728;8.748;2022-10-16T00:56:47;5.43;;;4.40;;
34924;SDS011;21130;51.728;8.748;2022-10-16T00:59:16;9.70;;;4.57;;
34924;SDS011;21130;51.728;8.748;2022-10-16T01:01:45;4.78;;;3.90;;
34924;SDS011;21130;51.728;8.748;2022-10-16T01:04:11;5.05;;;4.30;;
34924;SDS011;21130;51.728;8.748;2022-10-16T01:06:39;5.70;;;4.13;;
34924;SDS011;21130;51.728;8.748;2022-10-16T01:09:14;5.75;;;4.47;;
34924;SDS011;21130;51.728;8.748;2022-10-16T01:11:49;6.50;;;3.92;;
34924;SDS011;21130;51.728;8.748;2022-10-16T01:14:27;6.25;;;4.10;;
34924;SDS011;21130;51.728;8.748;2022-10-16T01:17:00;4.43;;;3.90;;
34924;SDS011;21130;51.728;8.748;2022-10-16T01:19:38;4.45;;;3.92;;
34924;SDS011;21130;51.728;8.748;2022-10-16T01:22:14;5.20;;;3.90;;
34924;SDS011;21130;51.728;8.748;2022-10-16T01:24:41;6.18;;;3.90;;
34924;SDS011;21130;51.728;8.748;2022-10-16T01:27:13;8.90;;;4.00;;
34924;SDS011;21130;51.728;8.748;2022-10-16T01:29:46;6.95;;;3.72;;
34924;SDS011;21130;51.728;8.748;2022-10-16T01:32:19;6.07;;;4.15;;
34924;SDS011;21130;51.728;8.748;2022-10-16T01:34:56;4.82;;;3.45;;
34924;SDS011;21130;51.728;8.748;2022-10-16T01:37:29;3.88;;;3.47;;
34924;SDS011;21130;51.728;8.748;2022-10-16T01:40:02;4.13;;;3.70;;
34924;SDS011;21130;51.728;8.748;2022-10-16T01:42:35;3.60;;;3.30;;
34924;SDS011;21130;51.728;8.748;2022-10-16T01:45:05;4.28;;;3.70;;
34924;SDS011;21130;51.728;8.748;2022-10-16T01:47:37;7.00;;;3.80;;
34924;SDS011;21130;51.728;8.748;2022-10-16T01:50:05;5.75;;;3.38;;
34924;SDS011;21130;51.728;8.748;2022-10-16T01:52:34;4.75;;;3.50;;
34924;SDS011;21130;51.728;8.748;2022-10-16T01:55:04;4.25;;;3.10;;
34924;SDS011;21130;51.728;8.748;2022-10-16T01:57:35;4.15;;;3.10;;
34924;SDS011;21130;51.728;8.748;2022-10-16T02:00:06;3.70;;;2.80;;
34924;SDS011;21130;51.728;8.748;2022-10-16T02:02:36;4.13;;;2.83;;
34924;SDS011;21130;51.728;8.748;2022-10-16T02:05:08;4.22;;;2.65;;
34924;SDS011;21130;51.728;8.748;2022-10-16T02:07:42;5.50;;;2.90;;
34924;SDS011;21130;51.728;8.748;2022-10-16T02:10:09;4.07;;;2.75;;
34924;SDS011;21130;51.728;8.748;2022-10-16T02:12:38;3.65;;;2.80;;
34924;SDS011;21130;51.728;8.748;2022-10-16T02:15:07;3.92;;;3.53;;
34924;SDS011;21130;51.728;8.748;2022-10-16T02:17:35;4.25;;;2.60;;
34924;SDS011;21130;51.728;8.748;2022-10-16T02:20:01;3.90;;;2.65;;
34924;SDS011;21130;51.728;8.748;2022-10-16T02:22:30;4.03;;;2.40;;
34924;SDS011;21130;51.728;8.748;2022-10-16T02:25:01;4.85;;;2.35;;
34924;SDS011;21130;51.728;8.748;2022-10-16T02:27:32;2.08;;;1.85;;
34924;SDS011;21130;51.728;8.748;2022-10-16T02:30:07;2.85;;;2.10;;
34924;SDS011;21130;51.728;8.748;2022-10-16T02:32:38;4.47;;;1.73;;
34924;SDS011;21130;51.728;8.748;2022-10-16T02:35:08;3.65;;;1.85;;
34924;SDS011;21130;51.728;8.748;2022-10-16T02:37:36;3.47;;;1.92;;
34924;SDS011;21130;51.728;8.748;2022-10-16T02:40:05;1.98;;;1.77;;
34924;SDS011;21130;51.728;8.748;2022-10-16T02:42:33;3.10;;;1.52;;
34924;SDS011;21130;51.728;8.748;2022-10-16T02:45:00;4.55;;;1.60;;
34924;SDS011;21130;51.728;8.748;2022-10-16T02:47:28;2.22;;;1.40;;
34924;SDS011;21130;51.728;8.748;2022-10-16T02:49:56;3.72;;;1.70;;
34924;SDS011;21130;51.728;8.748;2022-10-16T02:52:22;1.42;;;1.30;;
34924;SDS011;21130;51.728;8.748;2022-10-16T02:54:49;1.85;;;1.23;;
34924;SDS011;21130;51.728;8.748;2022-10-16T02:57:15;3.00;;;1.38;;
34924;SDS011;21130;51.728;8.748;2022-10-16T02:59:43;3.95;;;1.30;;
34924;SDS011;21130;51.728;8.748;2022-10-16T03:02:09;5.93;;;1.70;;
34924;SDS011;21130;51.728;8.748;2022-10-16T03:04:38;3.83;;;1.50;;
34924;SDS011;21130;51.728;8.748;2022-10-16T03:07:04;1.30;;;1.20;;
34924;SDS011;21130;51.728;8.748;2022-10-16T03:09:31;5.00;;;1.60;;
34924;SDS011;21130;51.728;8.748;2022-10-16T03:11:57;2.55;;;1.48;;
34924;SDS011;21130;51.728;8.748;2022-10-16T03:14:24;3.38;;;1.63;;
34924;SDS011;21130;51.728;8.748;2022-10-16T03:16:50;2.40;;;1.23;;
34924;SDS011;21130;51.728;8.748;2022-10-16T03:19:17;5.38;;;1.25;;
34924;SDS011;21130;51.728;8.748;2022-10-16T03:21:45;2.17;;;1.38;;
34924;SDS011;21130;51.728;8.748;2022-10-16T03:24:12;6.68;;;1.45;;
34924;SDS011;21130;51.728;8.748;2022-10-16T03:26:38;2.28;;;1.15;;
34924;SDS011;21130;51.728;8.748;2022-10-16T03:29:05;1.55;;;1.10;;
34924;SDS011;21130;51.728;8.748;2022-10-16T03:31:31;2.85;;;1.00;;
34924;SDS011;21130;51.728;8.748;2022-10-16T03:33:58;4.22;;;1.45;;
34924;SDS011;21130;51.728;8.748;2022-10-16T03:36:24;2.90;;;1.40;;
34924;SDS011;21130;51.728;8.748;2022-10-16T03:38:52;2.78;;;1.30;;
34924;SDS011;21130;51.728;8.748;2022-10-16T03:41:19;2.08;;;1.17;;
34924;SDS011;21130;51.728;8.748;2022-10-16T03:43:45;1.40;;;1.30;;
34924;SDS011;21130;51.728;8.748;2022-10-16T03:46:12;2.65;;;1.15;;
34924;SDS011;21130;51.728;8.748;2022-10-16T03:48:38;4.53;;;1.55;;
34924;SDS011;21130;51.728;8.748;2022-10-16T03:51:07;1.35;;;1.20;;
34924;SDS011;21130;51.728;8.748;2022-10-16T03:53:33;2.33;;;1.30;;
34924;SDS011;21130;51.728;8.748;2022-10-16T03:56:01;2.58;;;1.48;;
34924;SDS011;21130;51.728;8.748;2022-10-16T03:58:28;1.38;;;1.20;;
34924;SDS011;21130;51.728;8.748;2022-10-16T04:00:54;1.33;;;1.17;;
34924;SDS011;21130;51.728;8.748;2022-10-16T04:03:21;1.20;;;1.10;;
34924;SDS011;21130;51.728;8.748;2022-10-16T04:05:48;2.45;;;1.50;;
34924;SDS011;21130;51.728;8.748;2022-10-16T04:08:15;2.40;;;1.67;;
34924;SDS011;21130;51.728;8.748;2022-10-16T04:10:42;1.75;;;1.52;;
34924;SDS011;21130;51.728;8.748;2022-10-16T04:13:10;4.03;;;2.10;;
34924;SDS011;21130;51.728;8.748;2022-10-16T04:15:49;3.13;;;2.33;;
34924;SDS011;21130;51.728;8.748;2022-10-16T04:18:16;2.38;;;2.10;;
34924;SDS011;21130;51.728;8.748;2022-10-16T04:20:43;4.72;;;3.30;;
34924;SDS011;21130;51.728;8.748;2022-10-16T04:23:09;4.82;;;2.72;;
34924;SDS011;21130;51.728;8.748;2022-10-16T04:25:36;4.07;;;2.20;;
34924;SDS011;21130;51.728;8.748;2022-10-16T04:28:02;2.00;;;1.70;;
34924;SDS011;21130;51.728;8.748;2022-10-16T04:30:30;3.33;;;1.48;;
34924;SDS011;21130;51.728;8.748;2022-10-16T04:32:58;4.93;;;1.63;;
34924;SDS011;21130;51.728;8.748;2022-10-16T04:35:25;2.72;;;1.38;;
34924;SDS011;21130;51.728;8.748;2022-10-16T04:37:51;2.95;;;1.10;;
34924;SDS011;21130;51.728;8.748;2022-10-16T04:40:18;2.85;;;1.38;;
34924;SDS011;21130;51.728;8.748;2022-10-16T04:42:44;1.83;;;1.30;;
34924;SDS011;21130;51.728;8.748;2022-10-16T04:45:11;1.83;;;1.30;;
34924;SDS011;21130;51.728;8.748;2022-10-16T04:47:39;2.70;;;1.02;;
34924;SDS011;21130;51.728;8.748;2022-10-16T04:50:05;2.67;;;1.30;;
34924;SDS011;21130;51.728;8.748;2022-10-16T04:52:34;1.10;;;1.02;;
34924;SDS011;21130;51.728;8.748;2022-10-16T04:55:00;4.55;;;1.33;;
34924;SDS011;21130;51.728;8.748;2022-10-16T04:57:27;1.55;;;1.23;;
34924;SDS011;21130;51.728;8.748;2022-10-16T04:59:54;2.67;;;1.48;;
34924;SDS011;21130;51.728;8.748;2022-10-16T05:02:21;1.42;;;1.23;;
34924;SDS011;21130;51.728;8.748;2022-10-16T05:04:49;2.67;;;1.20;;
34924;SDS011;21130;51.728;8.748;2022-10-16T05:07:15;1.50;;;1.40;;
34924;SDS011;21130;51.728;8.748;2022-10-16T05:09:42;3.63;;;1.20;;
34924;SDS011;21130;51.728;8.748;2022-10-16T05:12:08;1.42;;;1.05;;
34924;SDS011;21130;51.728;8.748;2022-10-16T05:14:35;1.20;;;1.10;;
34924;SDS011;21130;51.728;8.748;2022-10-16T05:17:01;1.27;;;1.17;;
34924;SDS011;21130;51.728;8.748;2022-10-16T05:19:28;2.58;;;1.20;;
34924;SDS011;21130;51.728;8.748;2022-10-16T05:21:56;0.93;;;0.93;;
34924;SDS011;21130;51.728;8.748;2022-10-16T05:24:23;2.25;;;0.93;;
34924;SDS011;21130;51.728;8.748;2022-10-16T05:26:49;1.00;;;1.00;;
34924;SDS011;21130;51.728;8.748;2022-10-16T05:29:16;1.75;;;0.90;;
34924;SDS011;21130;51.728;8.748;2022-10-16T05:31:42;2.67;;;1.15;;
34924;SDS011;21130;51.728;8.748;2022-10-16T05:34:09;2.67;;;1.17;;
34924;SDS011;21130;51.728;8.748;2022-10-16T05:36:35;4.18;;;1.38;;
34924;SDS011;21130;51.728;8.748;2022-10-16T05:39:03;3.22;;;1.13;;
34924;SDS011;21130;51.728;8.748;2022-10-16T05:41:30;1.35;;;1.05;;
34924;SDS011;21130;51.728;8.748;2022-10-16T05:43:56;1.77;;;0.90;;
34924;SDS011;21130;51.728;8.748;2022-10-16T05:46:23;1.73;;;1.20;;
34924;SDS011;21130;51.728;8.748;2022-10-16T05:48:51;1.42;;;0.90;;
34924;SDS011;21130;51.728;8.748;2022-10-16T05:51:18;1.55;;;1.02;;
34924;SDS011;21130;51.728;8.748;2022-10-16T05:53:45;1.83;;;1.10;;
34924;SDS011;21130;51.728;8.748;2022-10-16T05:56:12;2.38;;;1.15;;
34924;SDS011;21130;51.728;8.748;2022-10-16T05:58:39;3.30;;;1.00;;
34924;SDS011;21130;51.728;8.748;2022-10-16T06:01:06;1.23;;;0.93;;
34924;SDS011;21130;51.728;8.748;2022-10-16T06:03:35;0.77;;;0.77;;
34924;SDS011;21130;51.728;8.748;2022-10-16T06:06:07;2.33;;;0.80;;
34924;SDS011;21130;51.728;8.748;2022-10-16T06:08:36;1.00;;;0.90;;
34924;SDS011;21130;51.728;8.748;2022-10-16T06:11:04;1.95;;;1.00;;
34924;SDS011;21130;51.728;8.748;2022-10-16T06:13:33;3.08;;;1.30;;
34924;SDS011;21130;51.728;8.748;2022-10-16T06:16:00;1.08;;;0.95;;
34924;SDS011;21130;51.728;8.748;2022-10-16T06:18:29;2.35;;;1.00;;
34924;SDS011;21130;51.728;8.748;2022-10-16T06:21:06;2.00;;;1.05;;
34924;SDS011;21130;51.728;8.748;2022-10-16T06:23:34;2.50;;;0.90;;
34924;SDS011;21130;51.728;8.748;2022-10-16T06:26:04;1.00;;;0.80;;
34924;SDS011;21130;51.728;8.748;2022-10-16T06:28:32;1.35;;;1.00;;
34924;SDS011;21130;51.728;8.748;2022-10-16T06:30:59;1.95;;;1.00;;
34924;SDS011;21130;51.728;8.748;2022-10-16T06:33:25;1.85;;;0.88;;
34924;SDS011;21130;51.728;8.748;2022-10-16T06:35:52;0.82;;;0.80;;
34924;SDS011;21130;51.728;8.748;2022-10-16T06:38:18;1.08;;;0.65;;
34924;SDS011;21130;51.728;8.748;2022-10-16T06:40:45;1.73;;;1.23;;
34924;SDS011;21130;51.728;8.748;2022-10-16T06:43:11;0.77;;;0.77;;
34924;SDS011;21130;51.728;8.748;2022-10-16T06:45:39;0.88;;;0.80;;
34924;SDS011;21130;51.728;8.748;2022-10-16T06:48:06;1.33;;;1.00;;
34924;SDS011;21130;51.728;8.748;2022-10-16T06:50:32;2.42;;;0.80;;
34924;SDS011;21130;51.728;8.748;2022-10-16T06:52:59;1.08;;;0.90;;
34924;SDS011;21130;51.728;8.748;2022-10-16T06:55:26;2.20;;;1.15;;
34924;SDS011;21130;51.728;8.748;2022-10-16T06:57:53;1.33;;;0.70;;
34924;SDS011;21130;51.728;8.748;2022-10-16T07:00:19;0.80;;;0.80;;
34924;SDS011;21130;51.728;8.748;2022-10-16T07:02:47;1.13;;;0.90;;
34924;SDS011;21130;51.728;8.748;2022-10-16T07:05:14;1.30;;;0.95;;
34924;SDS011;21130;51.728;8.748;2022-10-16T07:07:40;1.95;;;0.85;;
34924;SDS011;21130;51.728;8.748;2022-10-16T07:10:07;1.77;;;1.02;;
34924;SDS011;21130;51.728;8.748;2022-10-16T07:12:34;1.33;;;0.68;;
34924;SDS011;21130;51.728;8.748;2022-10-16T07:15:01;1.92;;;1.05;;
34924;SDS011;21130;51.728;8.748;2022-10-16T07:17:27;1.95;;;0.90;;
34924;SDS011;21130;51.728;8.748;2022-10-16T07:19:55;1.35;;;0.90;;
34924;SDS011;21130;51.728;8.748;2022-10-16T07:22:21;2.17;;;1.20;;
34924;SDS011;21130;51.728;8.748;2022-10-16T07:24:48;1.48;;;0.93;;
34924;SDS011;21130;51.728;8.748;2022-10-16T07:27:16;0.90;;;0.90;;
34924;SDS011;21130;51.728;8.748;2022-10-16T07:29:43;4.40;;;1.05;;
34924;SDS011;21130;51.728;8.748;2022-10-16T07:32:09;1.85;;;0.90;;
34924;SDS011;21130;51.728;8.748;2022-10-16T07:34:36;2.67;;;0.90;;
34924;SDS011;21130;51.728;8.748;2022-10-16T07:37:03;3.22;;;0.90;;
34924;SDS011;21130;51.728;8.748;2022-10-16T07:39:30;1.50;;;1.00;;
34924;SDS011;21130;51.728;8.748;2022-10-16T07:41:56;2.38;;;1.15;;
34924;SDS011;21130;51.728;8.748;2022-10-16T07:44:23;2.97;;;0.90;;
34924;SDS011;21130;51.728;8.748;2022-10-16T07:46:49;4.32;;;0.73;;
34924;SDS011;21130;51.728;8.748;2022-10-16T07:49:16;3.95;;;0.88;;
34924;SDS011;21130;51.728;8.748;2022-10-16T07:51:42;2.25;;;1.00;;
34924;SDS011;21130;51.728;8.748;2022-10-16T07:54:10;1.15;;;0.60;;
34924;SDS011;21130;51.728;8.748;2022-10-16T07:56:37;2.65;;;0.80;;
34924;SDS011;21130;51.728;8.748;2022-10-16T07:59:04;3.25;;;0.80;;
34924;SDS011;21130;51.728;8.748;2022-10-16T08:01:30;4.10;;;0.80;;
34924;SDS011;21130;51.728;8.748;2022-10-16T08:03:57;2.40;;;0.80;;
34924;SDS011;21130;51.728;8.748;2022-10-16T08:06:24;1.80;;;0.60;;
34924;SDS011;21130;51.728;8.748;2022-10-16T08:08:50;0.75;;;0.75;;
34924;SDS011;21130;51.728;8.748;2022-10-16T08:11:18;3.53;;;1.00;;
34924;SDS011;21130;51.728;8.748;2022-10-16T08:13:45;1.90;;;0.85;;
34924;SDS011;21130;51.728;8.748;2022-10-16T08:16:11;0.60;;;0.60;;
34924;SDS011;21130;51.728;8.748;2022-10-16T08:18:38;0.70;;;0.60;;
34924;SDS011;21130;51.728;8.748;2022-10-16T08:21:06;1.58;;;0.57;;
34924;SDS011;21130;51.728;8.748;2022-10-16T08:23:38;0.80;;;0.50;;
34924;SDS011;21130;51.728;8.748;2022-10-16T08:26:05;0.95;;;0.60;;
34924;SDS011;21130;51.728;8.748;2022-10-16T08:28:33;0.60;;;0.52;;
34924;SDS011;21130;51.728;8.748;2022-10-16T08:31:07;1.80;;;0.60;;
34924;SDS011;21130;51.728;8.748;2022-10-16T08:33:35;1.80;;;0.60;;
34924;SDS011;21130;51.728;8.748;2022-10-16T08:36:02;3.83;;;0.80;;
34924;SDS011;21130;51.728;8.748;2022-10-16T08:38:29;2.08;;;0.60;;
34924;SDS011;21130;51.728;8.748;2022-10-16T08:40:57;1.92;;;0.55;;
34924;SDS011;21130;51.728;8.748;2022-10-16T08:43:43;3.60;;;0.65;;
34924;SDS011;21130;51.728;8.748;2022-10-16T08:46:33;2.17;;;0.70;;
34924;SDS011;21130;51.728;8.748;2022-10-16T08:49:09;1.35;;;0.60;;
34924;SDS011;21130;51.728;8.748;2022-10-16T08:51:39;2.90;;;0.90;;
34924;SDS011;21130;51.728;8.748;2022-10-16T08:54:08;4.40;;;0.80;;
34924;SDS011;21130;51.728;8.748;2022-10-16T08:56:50;0.47;;;0.47;;
34924;SDS011;21130;51.728;8.748;2022-10-16T08:59:17;0.70;;;0.52;;
34924;SDS011;21130;51.728;8.748;2022-10-16T09:01:45;3.78;;;0.80;;
34924;SDS011;21130;51.728;8.748;2022-10-16T09:07:20;0.60;;;0.60;;
34924;SDS011;21130;51.728;8.748;2022-10-16T09:10:02;1.73;;;0.82;;
34924;SDS011;21130;51.728;8.748;2022-10-16T09:12:41;0.95;;;0.70;;
34924;SDS011;21130;51.728;8.748;2022-10-16T09:15:17;1.35;;;0.60;;
34924;SDS011;21130;51.728;8.748;2022-10-16T09:17:53;1.88;;;0.80;;
34924;SDS011;21130;51.728;8.748;2022-10-16T09:20:29;4.38;;;0.70;;
34924;SDS011;21130;51.728;8.748;2022-10-16T09:23:16;0.70;;;0.50;;
34924;SDS011;21130;51.728;8.748;2022-10-16T09:25:45;2.88;;;0.85;;
34924;SDS011;21130;51.728;8.748;2022-10-16T09:28:16;2.13;;;0.60;;
34924;SDS011;21130;51.728;8.748;2022-10-16T09:30:45;4.35;;;0.85;;
34924;SDS011;21130;51.728;8.748;2022-10-16T09:33:13;1.05;;;0.73;;
34924;SDS011;21130;51.728;8.748;2022-10-16T09:35:42;2.38;;;0.70;;
34924;SDS011;21130;51.728;8.748;2022-10-16T09:38:20;4.20;;;0.90;;
34924;SDS011;21130;51.728;8.748;2022-10-16T09:40:48;1.17;;;0.80;;
34924;SDS011;21130;51.728;8.748;2022-10-16T09:43:24;3.15;;;0.90;;
34924;SDS011;21130;51.728;8.748;2022-10-16T09:46:01;1.58;;;0.95;;
34924;SDS011;21130;51.728;8.748;2022-10-16T09:48:31;1.45;;;0.77;;
34924;SDS011;21130;51.728;8.748;2022-10-16T09:51:03;3.58;;;0.95;;
34924;SDS011;21130;51.728;8.748;2022-10-16T09:53:39;1.42;;;0.85;;
34924;SDS011;21130;51.728;8.748;2022-10-16T09:56:09;1.85;;;0.98;;
34924;SDS011;21130;51.728;8.748;2022-10-16T09:58:43;4.20;;;1.13;;
34924;SDS011;21130;51.728;8.748;2022-10-16T10:01:18;1.10;;;1.00;;
34924;SDS011;21130;51.728;8.748;2022-10-16T10:03:45;3.20;;;1.20;;
34924;SDS011;21130;51.728;8.748;2022-10-16T10:06:22;2.33;;;1.02;;
34924;SDS011;21130;51.728;8.748;2022-10-16T10:08:58;3.53;;;1.40;;
34924;SDS011;21130;51.728;8.748;2022-10-16T10:11:37;1.50;;;0.90;;
34924;SDS011;21130;51.728;8.748;2022-10-16T10:14:05;1.88;;;1.08;;
34924;SDS011;21130;51.728;8.748;2022-10-16T10:16:33;1.38;;;1.10;;
34924;SDS011;21130;51.728;8.748;2022-10-16T10:19:00;1.10;;;1.00;;
34924;SDS011;21130;51.728;8.748;2022-10-16T10:21:27;1.67;;;0.90;;
34924;SDS011;21130;51.728;8.748;2022-10-16T10:23:56;2.03;;;0.75;;
34924;SDS011;21130;51.728;8.748;2022-10-16T10:26:26;1.67;;;0.95;;
34924;SDS011;21130;51.728;8.748;2022-10-16T10:28:55;1.95;;;0.73;;
34924;SDS011;21130;51.728;8.748;2022-10-16T10:31:35;1.02;;;0.70;;
34924;SDS011;21130;51.728;8.748;2022-10-16T10:34:17;1.83;;;0.85;;
34924;SDS011;21130;51.728;8.748;2022-10-16T10:36:53;0.57;;;0.50;;
34924;SDS011;21130;51.728;8.748;2022-10-16T10:39:27;1.98;;;0.70;;
34924;SDS011;21130;51.728;8.748;2022-10-16T10:42:05;1.77;;;0.60;;
34924;SDS011;21130;51.728;8.748;2022-10-16T10:44:51;2.83;;;0.60;;
34924;SDS011;21130;51.728;8.748;2022-10-16T10:47:32;1.02;;;0.68;;
34924;SDS011;21130;51.728;8.748;2022-10-16T10:50:14;2.22;;;0.52;;
34924;SDS011;21130;51.728;8.748;2022-10-16T10:52:50;2.28;;;0.63;;
34924;SDS011;21130;51.728;8.748;2022-10-16T10:55:26;3.50;;;0.70;;
34924;SDS011;21130;51.728;8.748;2022-10-16T11:01:06;2.47;;;0.75;;
34924;SDS011;21130;51.728;8.748;2022-10-16T11:03:50;2.17;;;0.63;;
34924;SDS011;21130;51.728;8.748;2022-10-16T11:06:42;1.30;;;0.55;;
34924;SDS011;21130;51.728;8.748;2022-10-16T11:09:13;0.85;;;0.43;;
34924;SDS011;21130;51.728;8.748;2022-10-16T11:11:45;0.68;;;0.40;;
34924;SDS011;21130;51.728;8.748;2022-10-16T11:14:17;1.42;;;0.50;;
34924;SDS011;21130;51.728;8.748;2022-10-16T11:16:48;1.23;;;0.40;;
34924;SDS011;21130;51.728;8.748;2022-10-16T11:19:22;0.38;;;0.38;;
34924;SDS011;21130;51.728;8.748;2022-10-16T11:22:00;0.50;;;0.40;;
34924;SDS011;21130;51.728;8.748;2022-10-16T11:24:34;1.77;;;0.70;;
34924;SDS011;21130;51.728;8.748;2022-10-16T11:27:08;0.85;;;0.57;;
34924;SDS011;21130;51.728;8.748;2022-10-16T11:29:40;0.95;;;0.40;;
34924;SDS011;21130;51.728;8.748;2022-10-16T11:32:16;0.73;;;0.43;;
34924;SDS011;21130;51.728;8.748;2022-10-16T11:34:51;1.90;;;0.32;;
34924;SDS011;21130;51.728;8.748;2022-10-16T11:37:23;1.65;;;0.45;;
34924;SDS011;21130;51.728;8.748;2022-10-16T11:39:57;1.73;;;0.40;;
34924;SDS011;21130;51.728;8.748;2022-10-16T11:42:30;1.40;;;0.50;;
34924;SDS011;21130;51.728;8.748;2022-10-16T11:45:02;0.95;;;0.50;;
34924;SDS011;21130;51.728;8.748;2022-10-16T11:47:40;2.55;;;0.65;;
34924;SDS011;21130;51.728;8.748;2022-10-16T11:50:13;1.65;;;0.50;;
34924;SDS011;21130;51.728;8.748;2022-10-16T11:52:48;1.90;;;0.50;;
34924;SDS011;21130;51.728;8.748;2022-10-16T11:55:23;2.05;;;0.40;;
34924;SDS011;21130;51.728;8.748;2022-10-16T11:57:57;1.70;;;0.50;;
34924;SDS011;21130;51.728;8.748;2022-10-16T12:00:28;1.55;;;0.68;;
34924;SDS011;21130;51.728;8.748;2022-10-16T12:06:46;1.23;;;0.50;;
34924;SDS011;21130;51.728;8.748;2022-10-16T12:09:19;1.88;;;0.60;;
34924;SDS011;21130;51.728;8.748;2022-10-16T12:11:50;1.48;;;0.50;;
34924;SDS011;21130;51.728;8.748;2022-10-16T12:14:18;0.82;;;0.47;;
34924;SDS011;21130;51.728;8.748;2022-10-16T12:17:01;1.25;;;0.35;;
34924;SDS011;21130;51.728;8.748;2022-10-16T12:19:30;0.82;;;0.35;;
34924;SDS011;21130;51.728;8.748;2022-10-16T12:21:59;2.22;;;0.50;;
34924;SDS011;21130;51.728;8.748;2022-10-16T12:24:32;2.45;;;0.70;;
34924;SDS011;21130;51.728;8.748;2022-10-16T12:27:01;1.30;;;0.32;;
34924;SDS011;21130;51.728;8.748;2022-10-16T12:29:33;0.82;;;0.30;;
34924;SDS011;21130;51.728;8.748;2022-10-16T12:32:03;1.83;;;0.52;;
34924;SDS011;21130;51.728;8.748;2022-10-16T12:34:34;1.23;;;0.50;;
34924;SDS011;21130;51.728;8.748;2022-10-16T12:37:10;0.32;;;0.30;;
34924;SDS011;21130;51.728;8.748;2022-10-16T12:39:40;2.40;;;0.55;;
34924;SDS011;21130;51.728;8.748;2022-10-16T12:42:19;0.93;;;0.50;;
34924;SDS011;21130;51.728;8.748;2022-10-16T12:44:47;1.55;;;0.45;;
34924;SDS011;21130;51.728;8.748;2022-10-16T12:47:19;1.63;;;0.40;;
34924;SDS011;21130;51.728;8.748;2022-10-16T12:49:48;3.50;;;0.60;;
34924;SDS011;21130;51.728;8.748;2022-10-16T12:52:27;1.73;;;0.60;;
34924;SDS011;21130;51.728;8.748;2022-10-16T12:55:01;1.98;;;0.40;;
34924;SDS011;21130;51.728;8.748;2022-10-16T12:57:34;1.65;;;0.50;;
34924;SDS011;21130;51.728;8.748;2022-10-16T13:00:13;1.30;;;0.40;;
34924;SDS011;21130;51.728;8.748;2022-10-16T13:02:56;1.73;;;0.40;;
34924;SDS011;21130;51.728;8.748;2022-10-16T13:05:47;1.40;;;0.70;;
34924;SDS011;21130;51.728;8.748;2022-10-16T13:08:29;1.15;;;0.40;;
34924;SDS011;21130;51.728;8.748;2022-10-16T13:11:05;1.75;;;0.63;;
34924;SDS011;21130;51.728;8.748;2022-10-16T13:16:38;4.93;;;0.57;;
34924;SDS011;21130;51.728;8.748;2022-10-16T13:19:18;1.52;;;0.60;;
34924;SDS011;21130;51.728;8.748;2022-10-16T13:21:56;2.00;;;0.30;;
34924;SDS011;21130;51.728;8.748;2022-10-16T13:24:36;2.40;;;0.45;;
34924;SDS011;21130;51.728;8.748;2022-10-16T13:27:16;1.25;;;0.50;;
34924;SDS011;21130;51.728;8.748;2022-10-16T13:29:52;0.93;;;0.40;;
34924;SDS011;21130;51.728;8.748;2022-10-16T13:32:24;1.85;;;0.50;;
34924;SDS011;21130;51.728;8.748;2022-10-16T13:34:52;1.35;;;0.47;;
34924;SDS011;21130;51.728;8.748;2022-10-16T13:37:19;1.60;;;0.47;;
34924;SDS011;21130;51.728;8.748;2022-10-16T13:39:49;1.75;;;0.50;;
34924;SDS011;21130;51.728;8.748;2022-10-16T13:42:18;1.83;;;1.00;;
34924;SDS011;21130;51.728;8.748;2022-10-16T13:44:50;3.33;;;1.10;;
34924;SDS011;21130;51.728;8.748;2022-10-16T13:47:18;1.50;;;1.00;;
34924;SDS011;21130;51.728;8.748;2022-10-16T13:49:46;1.85;;;0.60;;
34924;SDS011;21130;51.728;8.748;2022-10-16T13:52:24;2.10;;;0.60;;
34924;SDS011;21130;51.728;8.748;2022-10-16T13:54:52;2.65;;;0.70;;
34924;SDS011;21130;51.728;8.748;2022-10-16T13:57:18;1.55;;;0.50;;
34924;SDS011;21130;51.728;8.748;2022-10-16T13:59:48;2.25;;;0.70;;
34924;SDS011;21130;51.728;8.748;2022-10-16T14:02:17;1.45;;;0.80;;
34924;SDS011;21130;51.728;8.748;2022-10-16T14:04:51;3.83;;;0.60;;
34924;SDS011;21130;51.728;8.748;2022-10-16T14:07:20;1.30;;;0.40;;
34924;SDS011;21130;51.728;8.748;2022-10-16T14:09:53;1.50;;;0.40;;
34924;SDS011;21130;51.728;8.748;2022-10-16T14:12:21;1.00;;;0.38;;
34924;SDS011;21130;51.728;8.748;2022-10-16T14:14:49;1.67;;;0.70;;
34924;SDS011;21130;51.728;8.748;2022-10-16T14:17:19;2.25;;;0.47;;
34924;SDS011;21130;51.728;8.748;2022-10-16T14:19:48;1.10;;;0.50;;
34924;SDS011;21130;51.728;8.748;2022-10-16T14:22:24;1.00;;;0.50;;
34924;SDS011;21130;51.728;8.748;2022-10-16T14:24:57;2.50;;;0.70;;
34924;SDS011;21130;51.728;8.748;2022-10-16T14:27:25;3.53;;;0.60;;
34924;SDS011;21130;51.728;8.748;2022-10-16T14:30:05;1.95;;;0.40;;
34924;SDS011;21130;51.728;8.748;2022-10-16T14:32:39;2.88;;;0.57;;
34924;SDS011;21130;51.728;8.748;2022-10-16T14:35:11;1.45;;;0.38;;
34924;SDS011;21130;51.728;8.748;2022-10-16T14:37:50;0.63;;;0.40;;
34924;SDS011;21130;51.728;8.748;2022-10-16T14:40:19;2.28;;;0.60;;
34924;SDS011;21130;51.728;8.748;2022-10-16T14:42:49;1.33;;;0.50;;
34924;SDS011;21130;51.728;8.748;2022-10-16T14:45:18;2.40;;;0.68;;
34924;SDS011;21130;51.728;8.748;2022-10-16T14:47:48;1.25;;;0.50;;
34924;SDS011;21130;51.728;8.748;2022-10-16T14:50:16;1.63;;;0.50;;
34924;SDS011;21130;51.728;8.748;2022-10-16T14:52:42;1.63;;;0.57;;
34924;SDS011;21130;51.728;8.748;2022-10-16T14:55:09;2.03;;;0.60;;
34924;SDS011;21130;51.728;8.748;2022-10-16T14:57:38;1.73;;;0.52;;
34924;SDS011;21130;51.728;8.748;2022-10-16T15:00:08;3.65;;;0.85;;
34924;SDS011;21130;51.728;8.748;2022-10-16T15:02:39;2.13;;;0.75;;
34924;SDS011;21130;51.728;8.748;2022-10-16T15:05:10;1.40;;;0.60;;
34924;SDS011;21130;51.728;8.748;2022-10-16T15:07:40;2.42;;;0.50;;
34924;SDS011;21130;51.728;8.748;2022-10-16T15:10:07;1.88;;;0.68;;
34924;SDS011;21130;51.728;8.748;2022-10-16T15:12:34;0.85;;;0.80;;
34924;SDS011;21130;51.728;8.748;2022-10-16T15:15:04;1.90;;;0.80;;
34924;SDS011;21130;51.728;8.748;2022-10-16T15:17:51;1.17;;;0.50;;
34924;SDS011;21130;51.728;8.748;2022-10-16T15:20:20;1.05;;;0.70;;
34924;SDS011;21130;51.728;8.748;2022-10-16T15:22:47;1.25;;;0.60;;
34924;SDS011;21130;51.728;8.748;2022-10-16T15:25:16;1.00;;;0.55;;
34924;SDS011;21130;51.728;8.748;2022-10-16T15:27:56;1.85;;;0.65;;
34924;SDS011;21130;51.728;8.748;2022-10-16T15:30:24;4.68;;;0.80;;
34924;SDS011;21130;51.728;8.748;2022-10-16T15:32:51;1.77;;;0.73;;
34924;SDS011;21130;51.728;8.748;2022-10-16T15:35:17;1.67;;;0.70;;